createdAt,value
2018-04-07T00:00:23.298Z,3.10
2018-04-07T00:02:50.864Z,3.00
2018-04-07T00:05:19.214Z,3.33
2018-04-07T00:07:46.821Z,3.07
2018-04-07T00:10:15.216Z,3.37
2018-04-07T00:12:42.822Z,3.03
2018-04-07T00:15:10.403Z,3.00
2018-04-07T00:17:37.982Z,3.67
2018-04-07T00:20:05.602Z,2.97
2018-04-07T00:22:33.249Z,3.47
2018-04-07T00:25:00.920Z,3.77
2018-04-07T00:27:28.491Z,3.47
2018-04-07T00:29:56.103Z,3.30
2018-04-07T00:32:23.699Z,3.30
2018-04-07T00:34:51.264Z,3.10
2018-04-07T00:37:19.306Z,3.40
2018-04-07T00:39:46.899Z,3.20
2018-04-07T00:42:14.483Z,3.10
2018-04-07T00:44:42.043Z,2.83
2018-04-07T00:47:09.650Z,3.07
2018-04-07T00:49:37.438Z,3.17
2018-04-07T00:52:05.085Z,3.20
2018-04-07T00:54:32.687Z,3.53
2018-04-07T00:57:00.455Z,3.17
2018-04-07T00:59:28.054Z,3.30
2018-04-07T01:01:56.392Z,3.50
2018-04-07T01:04:23.997Z,3.37
2018-04-07T01:06:51.678Z,3.27
2018-04-07T01:09:19.306Z,2.93
2018-04-07T01:11:47.670Z,3.33
2018-04-07T01:14:15.242Z,3.20
2018-04-07T01:16:42.837Z,3.13
2018-04-07T01:19:10.433Z,3.60
2018-04-07T01:21:38.052Z,3.33
2018-04-07T01:24:05.643Z,3.00
2018-04-07T01:26:33.342Z,3.40
2018-04-07T01:29:00.936Z,3.03
2018-04-07T01:31:28.552Z,3.40
2018-04-07T01:33:56.164Z,3.57
2018-04-07T01:36:23.757Z,2.80
2018-04-07T01:38:51.351Z,3.50
2018-04-07T01:41:18.954Z,3.50
2018-04-07T01:43:46.551Z,3.50
2018-04-07T01:46:14.131Z,3.73
2018-04-07T01:48:41.760Z,3.40
2018-04-07T01:51:09.519Z,3.40
2018-04-07T01:53:37.081Z,3.60
2018-04-07T01:56:04.867Z,3.60
2018-04-07T01:58:32.495Z,4.13
2018-04-07T02:01:00.068Z,3.87
2018-04-07T02:03:27.746Z,3.60
2018-04-07T02:05:55.336Z,3.90
2018-04-07T02:08:22.966Z,3.90
2018-04-07T02:10:50.607Z,3.60
2018-04-07T02:13:19.072Z,3.80
2018-04-07T02:15:46.709Z,3.90
2018-04-07T02:18:14.341Z,3.70
2018-04-07T02:20:41.966Z,3.83
2018-04-07T02:23:09.697Z,3.93
2018-04-07T02:25:37.301Z,3.93
2018-04-07T02:28:04.898Z,4.00
2018-04-07T02:30:32.513Z,4.47
2018-04-07T02:33:00.305Z,4.53
2018-04-07T02:35:27.877Z,4.13
2018-04-07T02:37:55.517Z,4.03
2018-04-07T02:40:23.189Z,4.27
2018-04-07T02:42:50.832Z,4.07
2018-04-07T02:45:18.426Z,4.37
2018-04-07T02:47:46.068Z,4.30
2018-04-07T02:50:13.665Z,4.27
2018-04-07T02:52:41.298Z,4.07
2018-04-07T02:55:08.965Z,4.10
2018-04-07T02:57:36.532Z,4.33
2018-04-07T03:00:04.134Z,4.20
2018-04-07T03:02:32.530Z,4.17
2018-04-07T03:05:00.860Z,4.10
2018-04-07T03:07:28.455Z,4.03
2018-04-07T03:09:56.081Z,3.77
2018-04-07T03:12:23.704Z,3.70
2018-04-07T03:14:51.281Z,4.00
2018-04-07T03:17:19.118Z,3.77
2018-04-07T03:19:47.520Z,3.70
2018-04-07T03:22:15.141Z,4.27
2018-04-07T03:24:42.795Z,3.53
2018-04-07T03:27:11.093Z,3.60
2018-04-07T03:29:39.476Z,3.83
2018-04-07T03:32:07.813Z,4.27
2018-04-07T03:34:35.438Z,4.30
2018-04-07T03:37:03.102Z,4.00
2018-04-07T03:39:30.746Z,3.90
2018-04-07T03:41:58.351Z,4.43
2018-04-07T03:44:26.323Z,3.90
2018-04-07T03:46:54.215Z,4.30
2018-04-07T03:49:21.819Z,3.93
2018-04-07T03:51:50.272Z,4.70
2018-04-07T03:54:17.921Z,4.60
2018-04-07T03:56:45.634Z,3.77
2018-04-07T03:59:13.256Z,4.13
2018-04-07T04:01:40.829Z,4.40
2018-04-07T04:04:08.501Z,4.17
2018-04-07T04:06:36.870Z,3.83
2018-04-07T04:09:04.509Z,4.10
2018-04-07T04:11:32.155Z,3.70
2018-04-07T04:13:59.758Z,3.93
2018-04-07T04:16:28.535Z,4.50
2018-04-07T04:18:56.131Z,4.10
2018-04-07T04:21:25.042Z,4.70
2018-04-07T04:23:52.623Z,4.23
2018-04-07T04:26:20.326Z,4.20
2018-04-07T04:28:47.993Z,4.47
2018-04-07T04:31:15.596Z,4.07
2018-04-07T04:33:43.229Z,3.67
2018-04-07T04:36:11.597Z,4.27
2018-04-07T04:38:39.955Z,4.30
2018-04-07T04:41:07.605Z,4.57
2018-04-07T04:43:35.180Z,4.33
2018-04-07T04:46:02.976Z,4.30
2018-04-07T04:48:31.365Z,4.60
2018-04-07T04:50:59.730Z,4.83
2018-04-07T04:53:28.117Z,4.20
2018-04-07T04:55:56.485Z,4.00
2018-04-07T04:58:24.846Z,5.27
2018-04-07T05:00:52.444Z,6.13
2018-04-07T05:03:20.549Z,6.27
2018-04-07T05:05:48.152Z,5.17
2018-04-07T05:10:49.533Z,5.43
2018-04-07T05:13:17.921Z,5.40
2018-04-07T05:15:46.349Z,5.23
2018-04-07T05:18:13.936Z,5.33
2018-04-07T05:20:41.500Z,4.93
2018-04-07T05:23:09.316Z,4.87
2018-04-07T05:25:36.919Z,5.00
2018-04-07T05:28:04.484Z,4.93
2018-04-07T05:30:32.080Z,4.33
2018-04-07T05:32:59.707Z,4.80
2018-04-07T05:35:27.531Z,4.70
2018-04-07T05:37:55.180Z,4.90
2018-04-07T05:40:22.814Z,4.60
2018-04-07T05:42:50.412Z,4.97
2018-04-07T05:45:18.043Z,4.63
2018-04-07T05:47:45.646Z,4.40
2018-04-07T05:50:14.005Z,4.40
2018-04-07T05:52:41.570Z,4.57
2018-04-07T05:55:09.220Z,4.27
2018-04-07T05:57:37.053Z,4.80
2018-04-07T06:00:04.679Z,4.80
2018-04-07T06:02:32.259Z,4.40
2018-04-07T06:04:59.852Z,4.60
2018-04-07T06:07:27.422Z,4.40
2018-04-07T06:09:55.049Z,4.80
2018-04-07T06:12:22.673Z,4.30
2018-04-07T06:14:50.332Z,4.83
2018-04-07T06:17:17.945Z,5.00
2018-04-07T06:19:45.543Z,4.60
2018-04-07T06:22:13.142Z,4.90
2018-04-07T06:24:41.505Z,4.73
2018-04-07T06:27:09.313Z,5.10
2018-04-07T06:29:36.910Z,4.73
2018-04-07T06:32:04.514Z,4.40
2018-04-07T06:34:32.080Z,4.30
2018-04-07T06:36:59.681Z,5.30
2018-04-07T06:39:27.331Z,5.00
2018-04-07T06:41:54.938Z,5.00
2018-04-07T06:44:22.505Z,4.83
2018-04-07T06:46:50.131Z,4.90
2018-04-07T06:49:17.710Z,4.90
2018-04-07T06:51:45.303Z,5.23
2018-04-07T06:54:12.905Z,4.80
2018-04-07T06:56:40.655Z,4.40
2018-04-07T06:59:08.236Z,5.00
2018-04-07T07:01:35.927Z,5.53
2018-04-07T07:04:04.313Z,5.10
2018-04-07T07:06:31.918Z,5.67
2018-04-07T07:08:59.587Z,4.70
2018-04-07T07:11:27.198Z,5.30
2018-04-07T07:13:54.767Z,5.50
2018-04-07T07:16:22.360Z,5.77
2018-04-07T07:18:49.972Z,5.50
2018-04-07T07:21:17.644Z,5.37
2018-04-07T07:23:45.233Z,4.73
2018-04-07T07:26:12.848Z,5.30
2018-04-07T07:28:40.408Z,5.47
2018-04-07T07:31:08.807Z,5.87
2018-04-07T07:33:36.438Z,5.80
2018-04-07T07:36:04.026Z,5.70
2018-04-07T07:38:31.653Z,5.57
2018-04-07T07:40:59.225Z,5.27
2018-04-07T07:43:27.653Z,5.63
2018-04-07T07:45:55.242Z,5.93
2018-04-07T07:48:22.843Z,5.00
2018-04-07T07:50:51.335Z,6.23
2018-04-07T07:53:18.926Z,5.90
2018-04-07T07:55:46.761Z,6.20
2018-04-07T07:58:14.388Z,5.83
2018-04-07T08:00:41.998Z,6.00
2018-04-07T08:03:09.635Z,6.50
2018-04-07T08:05:38.006Z,5.67
2018-04-07T08:08:05.653Z,7.10
2018-04-07T08:10:33.297Z,5.70
2018-04-07T08:13:00.884Z,6.37
2018-04-07T08:15:28.539Z,6.30
2018-04-07T08:17:58.751Z,6.10
2018-04-07T08:20:27.129Z,6.63
2018-04-07T08:22:54.743Z,6.40
2018-04-07T08:25:22.313Z,5.80
2018-04-07T08:27:49.880Z,6.70
2018-04-07T08:30:17.539Z,6.90
2018-04-07T08:32:45.186Z,6.50
2018-04-07T08:35:12.771Z,6.37
2018-04-07T08:37:40.427Z,6.13
2018-04-07T08:40:08.056Z,6.17
2018-04-07T08:42:36.418Z,6.07
2018-04-07T08:45:04.030Z,6.60
2018-04-07T08:47:31.620Z,6.80
2018-04-07T08:49:59.247Z,6.37
2018-04-07T08:52:26.835Z,6.40
2018-04-07T08:54:54.472Z,6.67
2018-04-07T08:57:22.146Z,7.27
2018-04-07T08:59:49.747Z,6.60
2018-04-07T09:02:17.362Z,6.70
2018-04-07T09:04:44.933Z,7.10
2018-04-07T09:07:12.509Z,7.00
2018-04-07T09:09:40.099Z,6.70
2018-04-07T09:12:07.690Z,7.00
2018-04-07T09:14:35.285Z,7.17
2018-04-07T09:17:02.906Z,6.80
2018-04-07T09:19:30.562Z,7.07
2018-04-07T09:21:58.269Z,7.00
2018-04-07T09:24:25.912Z,7.27
2018-04-07T09:26:53.520Z,6.87
2018-04-07T09:29:21.153Z,7.13
2018-04-07T09:31:48.781Z,8.13
2018-04-07T09:34:16.416Z,7.70
2018-04-07T09:36:44.053Z,7.73
2018-04-07T09:39:11.672Z,7.63
2018-04-07T09:41:40.013Z,7.23
2018-04-07T09:44:07.645Z,7.37
2018-04-07T09:46:35.285Z,6.63
2018-04-07T09:49:02.884Z,7.40
2018-04-07T09:51:30.542Z,7.83
2018-04-07T09:53:58.151Z,7.77
2018-04-07T09:56:25.724Z,7.57
2018-04-07T09:58:54.171Z,8.17
2018-04-07T10:01:21.781Z,8.13
2018-04-07T10:03:49.412Z,8.30
2018-04-07T10:06:17.007Z,6.83
2018-04-07T10:08:44.659Z,8.40
2018-04-07T10:11:12.274Z,8.50
2018-04-07T10:13:39.920Z,7.87
2018-04-07T10:16:07.534Z,7.60
2018-04-07T10:18:35.909Z,7.67
2018-04-07T10:21:04.274Z,8.03
2018-04-07T10:23:31.911Z,8.13
2018-04-07T10:25:59.574Z,8.20
2018-04-07T10:28:27.154Z,8.03
2018-04-07T10:30:55.082Z,8.33
2018-04-07T10:33:22.699Z,8.37
2018-04-07T10:35:50.317Z,7.90
2018-04-07T10:38:17.953Z,7.80
2018-04-07T10:40:45.530Z,7.57
2018-04-07T10:43:13.143Z,8.40
2018-04-07T10:45:40.769Z,7.93
2018-04-07T10:48:08.403Z,7.03
2018-04-07T10:50:36.049Z,7.23
2018-04-07T10:53:03.653Z,8.50
2018-04-07T10:55:36.950Z,7.77
2018-04-07T10:58:10.276Z,7.77
2018-04-07T11:00:38.192Z,7.23
2018-04-07T11:03:05.779Z,8.07
2018-04-07T11:05:33.388Z,8.20
2018-04-07T11:08:00.960Z,7.60
2018-04-07T11:10:29.129Z,7.73
2018-04-07T11:12:56.752Z,7.50
2018-04-07T11:15:24.327Z,7.60
2018-04-07T11:17:51.906Z,7.63
2018-04-07T11:20:19.519Z,7.53
2018-04-07T11:22:47.125Z,7.57
2018-04-07T11:25:14.762Z,7.90
2018-04-07T11:27:42.340Z,14.03
2018-04-07T11:30:09.931Z,9.77
2018-04-07T11:32:37.495Z,7.67
2018-04-07T11:35:05.082Z,8.27
2018-04-07T11:37:33.903Z,7.67
2018-04-07T11:40:01.557Z,7.70
2018-04-07T11:42:29.149Z,7.30
2018-04-07T11:44:57.501Z,7.80
2018-04-07T11:47:25.100Z,8.77
2018-04-07T11:49:52.738Z,7.85
2018-04-07T11:52:20.341Z,8.55
2018-04-07T11:54:47.982Z,7.18
2018-04-07T11:57:16.432Z,7.57
2018-04-07T11:59:44.054Z,7.40
2018-04-07T12:02:11.667Z,7.05
2018-04-07T12:04:39.287Z,7.10
2018-04-07T12:07:07.064Z,7.18
2018-04-07T12:09:34.711Z,6.87
2018-04-07T12:12:02.339Z,6.47
2018-04-07T12:14:30.699Z,6.07
2018-04-07T12:16:58.287Z,6.60
2018-04-07T12:19:25.882Z,6.40
2018-04-07T12:21:53.500Z,6.70
2018-04-07T12:24:21.073Z,6.97
2018-04-07T12:26:48.776Z,7.53
2018-04-07T12:29:16.387Z,7.05
2018-04-07T12:31:44.773Z,6.75
2018-04-07T12:34:13.482Z,6.93
2018-04-07T12:36:41.221Z,7.95
2018-04-07T12:39:09.596Z,6.97
2018-04-07T12:41:37.988Z,5.53
2018-04-07T12:44:06.601Z,6.20
2018-04-07T12:46:34.950Z,6.47
2018-04-07T12:49:02.534Z,6.00
2018-04-07T12:51:30.163Z,6.75
2018-04-07T12:53:57.798Z,6.75
2018-04-07T12:56:25.374Z,7.22
2018-04-07T12:58:52.980Z,6.65
2018-04-07T13:01:20.611Z,6.75
2018-04-07T13:03:48.249Z,6.37
2018-04-07T13:06:15.902Z,6.68
2018-04-07T13:08:43.501Z,6.30
2018-04-07T13:11:11.185Z,6.18
2018-04-07T13:13:39.647Z,6.30
2018-04-07T13:16:07.265Z,6.07
2018-04-07T13:18:34.865Z,5.93
2018-04-07T13:21:02.454Z,6.45
2018-04-07T13:23:30.053Z,6.18
2018-04-07T13:25:57.640Z,5.93
2018-04-07T13:28:25.296Z,5.85
2018-04-07T13:30:52.909Z,6.43
2018-04-07T13:33:20.576Z,6.07
2018-04-07T13:35:48.200Z,7.12
2018-04-07T13:38:15.796Z,6.62
2018-04-07T13:40:43.375Z,5.85
2018-04-07T13:43:11.024Z,6.60
2018-04-07T13:45:38.598Z,6.53
2018-04-07T13:48:06.185Z,6.72
2018-04-07T13:50:33.817Z,6.87
2018-04-07T13:53:01.428Z,6.28
2018-04-07T13:55:29.036Z,6.40
2018-04-07T13:57:56.637Z,6.45
2018-04-07T14:00:24.243Z,6.47
2018-04-07T14:02:51.860Z,6.37
2018-04-07T14:05:19.436Z,5.93
2018-04-07T14:07:47.046Z,5.70
2018-04-07T14:10:14.683Z,6.55
2018-04-07T14:12:42.312Z,5.55
2018-04-07T14:15:09.951Z,6.45
2018-04-07T14:17:37.526Z,5.43
2018-04-07T14:20:05.148Z,6.20
2018-04-07T14:22:32.783Z,5.97
2018-04-07T14:25:00.381Z,5.55
2018-04-07T14:27:27.984Z,5.72
2018-04-07T14:29:55.620Z,5.60
2018-04-07T14:32:23.251Z,5.20
2018-04-07T14:34:50.837Z,5.82
2018-04-07T14:37:19.214Z,5.50
2018-04-07T14:39:46.809Z,5.57
2018-04-07T14:42:14.435Z,5.20
2018-04-07T14:44:42.806Z,6.05
2018-04-07T14:47:10.410Z,6.30
2018-04-07T14:49:37.978Z,6.72
2018-04-07T14:52:05.573Z,6.10
2018-04-07T14:54:33.343Z,5.72
2018-04-07T14:57:00.949Z,6.75
2018-04-07T14:59:28.522Z,6.37
2018-04-07T15:01:56.159Z,5.78
2018-04-07T15:04:23.737Z,7.22
2018-04-07T15:06:51.384Z,7.43
2018-04-07T15:09:18.983Z,6.43
2018-04-07T15:11:46.773Z,7.50
2018-04-07T15:14:14.378Z,6.90
2018-04-07T15:16:41.971Z,7.62
2018-04-07T15:19:09.559Z,7.18
2018-04-07T15:21:37.154Z,7.35
2018-04-07T15:24:04.789Z,7.43
2018-04-07T15:26:32.378Z,7.95
2018-04-07T15:28:59.980Z,7.50
2018-04-07T15:31:27.562Z,7.65
2018-04-07T15:33:55.688Z,7.15
2018-04-07T15:36:23.261Z,7.25
2018-04-07T15:38:50.858Z,7.57
2018-04-07T15:41:18.494Z,7.95
2018-04-07T15:43:46.167Z,7.90
2018-04-07T15:46:14.593Z,6.75
2018-04-07T15:48:42.210Z,6.62
2018-04-07T15:51:09.827Z,6.50
2018-04-07T15:53:37.429Z,7.10
2018-04-07T15:56:05.809Z,8.60
2018-04-07T15:58:33.442Z,8.73
2018-04-07T16:01:01.108Z,8.32
2018-04-07T16:03:28.732Z,8.63
2018-04-07T16:05:56.381Z,8.48
2018-04-07T16:08:24.779Z,8.18
2018-04-07T16:10:52.422Z,7.15
2018-04-07T16:13:20.798Z,7.50
2018-04-07T16:15:49.183Z,8.48
2018-04-07T16:18:16.758Z,7.70
2018-04-07T16:20:44.343Z,9.23
2018-04-07T16:23:11.941Z,9.23
2018-04-07T16:25:39.595Z,10.05
2018-04-07T16:28:07.529Z,9.20
2018-04-07T16:30:35.142Z,8.55
2018-04-07T16:33:02.751Z,9.75
2018-04-07T16:35:30.367Z,8.35
2018-04-07T16:37:57.977Z,9.45
2018-04-07T16:40:25.641Z,9.13
2018-04-07T16:42:53.272Z,7.75
2018-04-07T16:45:20.906Z,8.20
2018-04-07T16:47:48.517Z,8.57
2018-04-07T16:50:16.165Z,8.35
2018-04-07T16:52:43.796Z,8.60
2018-04-07T16:55:11.368Z,8.00
2018-04-07T16:57:39.770Z,7.90
2018-04-07T17:00:07.418Z,7.35
2018-04-07T17:02:35.057Z,7.82
2018-04-07T17:05:02.661Z,8.75
2018-04-07T17:07:30.232Z,8.10
2018-04-07T17:09:57.857Z,7.93
2018-04-07T17:12:25.464Z,7.72
2018-04-07T17:14:53.057Z,7.80
2018-04-07T17:17:20.670Z,8.47
2018-04-07T17:19:48.263Z,7.97
2018-04-07T17:22:15.903Z,7.83
2018-04-07T17:24:43.547Z,8.00
2018-04-07T17:27:11.162Z,7.83
2018-04-07T17:29:38.798Z,8.40
2018-04-07T17:32:06.381Z,7.70
2018-04-07T17:34:34.019Z,8.50
2018-04-07T17:37:01.661Z,7.40
2018-04-07T17:39:29.307Z,7.07
2018-04-07T17:41:57.756Z,8.90
2018-04-07T17:44:25.424Z,8.90
2018-04-07T17:46:53.018Z,8.43
2018-04-07T17:49:20.628Z,8.87
2018-04-07T17:51:48.276Z,8.83
2018-04-07T17:54:15.903Z,8.47
2018-04-07T17:56:44.280Z,8.63
2018-04-07T17:59:12.661Z,9.23
2018-04-07T18:01:41.011Z,9.30
2018-04-07T18:04:08.651Z,8.17
2018-04-07T18:06:36.246Z,8.67
2018-04-07T18:09:03.922Z,8.43
2018-04-07T18:11:32.308Z,8.23
2018-04-07T18:13:59.887Z,9.33
2018-04-07T18:16:27.473Z,9.40
2018-04-07T18:18:55.081Z,8.63
2018-04-07T18:21:22.675Z,8.50
2018-04-07T18:23:50.306Z,8.37
2018-04-07T18:26:17.918Z,8.43
2018-04-07T18:28:45.553Z,8.73
2018-04-07T18:31:13.162Z,8.73
2018-04-07T18:33:40.736Z,9.37
2018-04-07T18:36:08.351Z,7.63
2018-04-07T18:38:35.965Z,8.37
2018-04-07T18:41:03.574Z,8.37
2018-04-07T18:43:31.204Z,8.20
2018-04-07T18:45:59.579Z,9.07
2018-04-07T18:48:27.226Z,7.80
2018-04-07T18:50:54.810Z,8.47
2018-04-07T18:53:23.213Z,8.90
2018-04-07T18:55:50.813Z,8.47
2018-04-07T18:58:18.468Z,8.83
2018-04-07T19:00:46.101Z,9.03
2018-04-07T19:03:14.158Z,9.13
2018-04-07T19:05:41.752Z,9.27
2018-04-07T19:08:09.348Z,9.37
2018-04-07T19:10:36.988Z,8.13
2018-04-07T19:13:04.580Z,9.63
2018-04-07T19:15:32.165Z,8.00
2018-04-07T19:18:00.560Z,8.00
2018-04-07T19:20:28.184Z,9.10
2018-04-07T19:22:55.822Z,8.30
2018-04-07T19:25:23.407Z,9.07
2018-04-07T19:27:50.981Z,9.47
2018-04-07T19:30:19.381Z,8.50
2018-04-07T19:32:46.984Z,8.50
2018-04-07T19:35:14.575Z,8.50
2018-04-07T19:37:42.326Z,8.87
2018-04-07T19:40:09.967Z,8.37
2018-04-07T19:42:37.546Z,8.53
2018-04-07T19:45:05.149Z,7.60
2018-04-07T19:47:32.750Z,9.13
2018-04-07T19:50:00.344Z,8.43
2018-04-07T19:52:27.963Z,8.20
2018-04-07T19:54:55.591Z,7.93
2018-04-07T19:57:23.200Z,7.87
2018-04-07T19:59:50.777Z,8.33
2018-04-07T20:02:18.407Z,7.93
2018-04-07T20:04:46.070Z,7.60
2018-04-07T20:07:13.723Z,7.83
2018-04-07T20:09:41.365Z,7.75
2018-04-07T20:12:08.977Z,8.23
2018-04-07T20:14:36.580Z,9.07
2018-04-07T20:17:04.245Z,6.97
2018-04-07T20:19:31.860Z,8.30
2018-04-07T20:21:59.431Z,8.00
2018-04-07T20:24:27.092Z,8.07
2018-04-07T20:26:54.696Z,8.23
2018-04-07T20:29:22.325Z,7.40
2018-04-07T20:31:49.905Z,8.03
2018-04-07T20:34:17.509Z,8.70
2018-04-07T20:36:45.332Z,8.60
2018-04-07T20:39:12.955Z,8.77
2018-04-07T20:41:40.536Z,8.10
2018-04-07T20:44:08.147Z,8.43
2018-04-07T20:46:35.798Z,7.83
2018-04-07T20:49:04.225Z,7.60
2018-04-07T20:54:05.872Z,7.60
2018-04-07T20:56:33.447Z,8.13
2018-04-07T20:59:01.077Z,7.87
2018-04-07T21:01:29.433Z,7.43
2018-04-07T21:03:57.080Z,7.40
2018-04-07T21:06:24.857Z,7.53
2018-04-07T21:08:52.465Z,8.00
2018-04-07T21:11:20.060Z,7.73
2018-04-07T21:13:47.621Z,7.90
2018-04-07T21:16:15.216Z,8.40
2018-04-07T21:18:42.806Z,7.83
2018-04-07T21:21:10.658Z,7.60
2018-04-07T21:23:38.997Z,7.10
2018-04-07T21:26:06.781Z,7.30
2018-04-07T21:28:34.370Z,7.83
2018-04-07T21:31:01.950Z,7.47
2018-04-07T21:33:29.595Z,7.53
2018-04-07T21:35:57.225Z,7.63
2018-04-07T21:38:24.885Z,7.47
2018-04-07T21:40:52.468Z,7.20
2018-04-07T21:43:20.884Z,7.17
2018-04-07T21:45:48.521Z,6.77
2018-04-07T21:48:16.186Z,7.23
2018-04-07T21:50:43.817Z,6.43
2018-04-07T21:53:11.468Z,7.80
2018-04-07T21:55:39.085Z,7.73
2018-04-07T21:58:06.698Z,7.83
2018-04-07T22:00:34.323Z,7.37
2018-04-07T22:03:01.945Z,7.13
2018-04-07T22:05:29.523Z,6.53
2018-04-07T22:07:57.900Z,6.57
2018-04-07T22:10:26.318Z,7.00
2018-04-07T22:12:53.929Z,7.70
2018-04-07T22:15:21.619Z,7.20
2018-04-07T22:17:49.252Z,7.63
2018-04-07T22:20:16.861Z,6.57
2018-04-07T22:22:44.447Z,6.73
2018-04-07T22:25:12.044Z,7.00
2018-04-07T22:27:39.616Z,6.90
2018-04-07T22:30:07.220Z,6.77
2018-04-07T22:32:34.796Z,7.20
2018-04-07T22:35:02.380Z,8.27
2018-04-07T22:37:30.030Z,6.80
2018-04-07T22:39:57.625Z,6.57
2018-04-07T22:42:26.074Z,6.40
2018-04-07T22:44:53.650Z,7.20
2018-04-07T22:47:21.500Z,6.63
2018-04-07T22:49:49.101Z,6.57
2018-04-07T22:52:16.665Z,6.70
2018-04-07T22:54:44.264Z,5.97
2018-04-07T22:57:11.868Z,6.40
2018-04-07T22:59:39.463Z,6.73
2018-04-07T23:02:07.055Z,7.00
2018-04-07T23:04:34.665Z,6.83
2018-04-07T23:07:03.023Z,6.50
2018-04-07T23:09:30.622Z,6.40
2018-04-07T23:11:58.229Z,6.40
2018-04-07T23:14:25.855Z,6.50
2018-04-07T23:16:53.433Z,6.80
2018-04-07T23:19:21.042Z,6.37
2018-04-07T23:21:49.427Z,6.37
2018-04-07T23:24:17.006Z,6.37
2018-04-07T23:26:44.617Z,6.20
2018-04-07T23:29:12.195Z,5.93
2018-04-07T23:31:39.798Z,5.83
2018-04-07T23:34:07.402Z,6.40
2018-04-07T23:36:35.030Z,6.37
2018-04-07T23:39:02.644Z,6.17
2018-04-07T23:41:30.249Z,6.37
2018-04-07T23:43:57.901Z,6.70
2018-04-07T23:46:25.767Z,6.70
2018-04-07T23:48:53.354Z,5.53
2018-04-07T23:51:20.934Z,5.73
2018-04-07T23:53:48.555Z,5.43
2018-04-07T23:56:16.160Z,5.73
2018-04-07T23:58:43.784Z,5.93
